Time;durP1;ratioP1;P1;durP2;ratioP2;P2;SDS_P1;SDS_P2;PMS_P1;PMS_P2;Temp;Humidity;BMP_temperature;BMP_pressure;BME280_temperature;BME280_humidity;BME280_pressure;Samples;Min_cycle;Max_cycle;Signal;HPM_P1;HPM_P2
2023/10/13 00:01:54;;;;;;;9.25;6.55;;;;;;;9.30;100.00;95328.28;4976857;28;20055;-75
2023/10/13 00:04:24;;;;;;;13.13;6.63;;;;;;;9.29;100.00;95326.66;4979028;28;20581;-75
2023/10/13 00:06:53;;;;;;;17.23;6.55;;;;;;;9.28;100.00;95317.28;4978872;28;20034;-75
2023/10/13 00:09:24;;;;;;;16.90;6.55;;;;;;;9.24;100.00;95321.16;4980242;28;20023;-75
2023/10/13 00:11:50;;;;;;;10.48;6.05;;;;;;;9.23;100.00;95310.97;4978592;28;20034;-75
2023/10/13 00:14:18;;;;;;;15.05;6.72;;;;;;;9.21;100.00;95305.16;4977339;28;20631;-75
2023/10/13 00:19:36;;;;;;;13.02;6.13;;;;;;;9.04;100.00;95309.41;4978032;28;20141;-74
2023/10/13 00:22:08;;;;;;;12.73;7.07;;;;;;;9.02;100.00;95302.78;4978673;28;20019;-75
2023/10/13 00:24:42;;;;;;;15.60;6.68;;;;;;;9.04;100.00;95311.19;4962225;28;20022;-74
2023/10/13 00:27:13;;;;;;;6.80;5.95;;;;;;;8.99;100.00;95309.84;4978654;28;20078;-74
2023/10/13 00:29:40;;;;;;;19.02;6.80;;;;;;;8.94;100.00;95304.34;4980178;28;20411;-74
2023/10/13 00:32:11;;;;;;;14.52;5.90;;;;;;;8.92;100.00;95306.28;4976727;28;20033;-75
2023/10/13 00:34:37;;;;;;;13.30;6.53;;;;;;;8.74;100.00;95299.50;4979796;28;20375;-74
2023/10/13 00:37:18;;;;;;;8.25;6.05;;;;;;;8.65;100.00;95303.81;4976818;28;20399;-74
2023/10/13 00:39:45;;;;;;;9.75;6.65;;;;;;;8.74;100.00;95300.31;4978997;28;20031;-74
2023/10/13 00:42:24;;;;;;;10.32;6.13;;;;;;;8.93;100.00;95305.28;4979602;28;20026;-74
2023/10/13 00:44:54;;;;;;;7.75;6.13;;;;;;;8.88;100.00;95293.81;4977790;28;20060;-74
2023/10/13 00:47:48;;;;;;;10.52;6.03;;;;;;;8.82;100.00;95299.59;4978471;28;20030;-74
2023/10/13 00:50:15;;;;;;;14.05;5.70;;;;;;;8.88;100.00;95301.56;4976873;28;20026;-75
2023/10/13 00:52:41;;;;;;;10.57;6.55;;;;;;;8.61;100.00;95301.66;4978035;28;20033;-75
2023/10/13 00:55:09;;;;;;;10.45;7.25;;;;;;;8.55;100.00;95310.00;4958590;28;20026;-74
2023/10/13 00:57:36;;;;;;;12.85;7.07;;;;;;;8.58;100.00;95310.53;4974605;28;20496;-74
2023/10/13 01:00:18;;;;;;;16.02;6.60;;;;;;;8.73;100.00;95306.44;4978578;28;20394;-75
2023/10/13 01:02:45;;;;;;;7.80;6.60;;;;;;;8.75;100.00;95301.13;4961587;28;20125;-75
2023/10/13 01:05:11;;;;;;;8.05;6.68;;;;;;;8.58;100.00;95315.69;4959318;28;20023;-75
2023/10/13 01:07:37;;;;;;;11.65;6.65;;;;;;;8.51;100.00;95322.41;4969900;28;20058;-75
2023/10/13 01:10:13;;;;;;;10.07;6.90;;;;;;;8.52;100.00;95331.78;4958000;28;20522;-75
2023/10/13 01:12:38;;;;;;;7.68;6.97;;;;;;;8.65;100.00;95332.22;4970432;28;20039;-75
2023/10/13 01:15:07;;;;;;;13.02;7.20;;;;;;;8.70;100.00;95327.41;4976094;28;20404;-75
2023/10/13 01:17:33;;;;;;;11.98;7.80;;;;;;;8.54;100.00;95335.00;4978553;28;20453;-74
2023/10/13 01:19:59;;;;;;;10.18;7.38;;;;;;;8.47;100.00;95331.44;4963483;28;20091;-75
2023/10/13 01:22:27;;;;;;;12.00;7.55;;;;;;;8.40;100.00;95333.78;4977989;28;20034;-75
2023/10/13 01:25:04;;;;;;;7.93;7.13;;;;;;;8.22;100.00;95320.03;4977261;28;20050;-75
2023/10/13 01:27:29;;;;;;;9.88;7.15;;;;;;;8.20;100.00;95331.47;4977146;28;20852;-75
2023/10/13 01:30:05;;;;;;;9.98;7.63;;;;;;;8.18;100.00;95335.97;4977238;28;20039;-75
2023/10/13 01:32:31;;;;;;;12.70;7.10;;;;;;;8.14;100.00;95342.34;4977371;28;20053;-75
2023/10/13 01:34:58;;;;;;;10.20;7.15;;;;;;;8.23;100.00;95342.28;4965154;28;20469;-75
2023/10/13 01:37:23;;;;;;;11.70;7.10;;;;;;;8.19;100.00;95350.47;4975735;28;20035;-75
2023/10/13 01:39:49;;;;;;;7.07;6.38;;;;;;;8.22;100.00;95353.56;4978889;28;20065;-75
2023/10/13 01:42:21;;;;;;;9.55;6.63;;;;;;;8.01;100.00;95341.91;4976103;28;20565;-74
2023/10/13 01:44:47;;;;;;;11.38;7.07;;;;;;;7.76;100.00;95333.91;4976692;28;20022;-75
2023/10/13 01:47:12;;;;;;;10.20;7.53;;;;;;;7.74;100.00;95340.97;4977204;28;20080;-75
2023/10/13 01:49:43;;;;;;;8.77;6.97;;;;;;;7.83;100.00;95345.25;4975932;28;20022;-78
2023/10/13 01:52:15;;;;;;;14.57;7.30;;;;;;;7.81;100.00;95347.16;4976279;28;20035;-75
2023/10/13 01:54:41;;;;;;;9.00;7.55;;;;;;;7.81;100.00;95356.66;4975598;28;20034;-75
2023/10/13 01:57:08;;;;;;;7.97;7.18;;;;;;;7.87;100.00;95356.91;4958181;28;20050;-75
2023/10/13 01:59:34;;;;;;;9.27;7.10;;;;;;;8.01;100.00;95357.38;4976785;28;20048;-75
2023/10/13 02:02:01;;;;;;;13.30;6.90;;;;;;;7.93;100.00;95361.47;4976429;28;20042;-75
2023/10/13 02:04:36;;;;;;;13.13;7.70;;;;;;;7.97;100.00;95362.00;4977007;28;20896;-75
2023/10/13 02:07:03;;;;;;;8.50;7.65;;;;;;;7.70;100.00;95362.03;4976609;28;20479;-75
2023/10/13 02:09:29;;;;;;;11.60;8.13;;;;;;;7.61;100.00;95365.47;4977349;28;20026;-74
2023/10/13 02:11:56;;;;;;;10.23;7.93;;;;;;;7.56;100.00;95368.47;4975190;28;20105;-74
2023/10/13 02:14:23;;;;;;;10.02;7.53;;;;;;;7.70;100.00;95360.28;4977161;28;20083;-75
2023/10/13 02:16:55;;;;;;;9.52;7.63;;;;;;;7.85;100.00;95356.25;4975859;28;20022;-75
2023/10/13 02:19:21;;;;;;;9.75;7.50;;;;;;;7.79;100.00;95363.75;4976719;28;20088;-75
2023/10/13 02:21:58;;;;;;;10.63;8.02;;;;;;;7.57;100.00;95354.63;4963019;28;20053;-74
2023/10/13 02:24:29;;;;;;;8.27;7.20;;;;;;;7.48;100.00;95345.16;4975424;28;20030;-75
2023/10/13 02:26:56;;;;;;;11.70;7.55;;;;;;;7.52;100.00;95353.41;4972979;28;20482;-75
2023/10/13 02:29:21;;;;;;;8.57;7.55;;;;;;;7.56;100.00;95347.84;4965492;28;20057;-75
2023/10/13 02:31:54;;;;;;;8.50;7.57;;;;;;;7.64;100.00;95349.72;4978183;28;20062;-75
2023/10/13 02:34:22;;;;;;;9.63;7.90;;;;;;;7.57;100.00;95346.91;4975737;28;20559;-75
2023/10/13 02:36:50;;;;;;;8.05;6.88;;;;;;;7.45;100.00;95348.00;4975772;28;20476;-75
2023/10/13 02:39:16;;;;;;;13.20;7.75;;;;;;;7.39;100.00;95351.16;4976701;28;20667;-76
2023/10/13 02:41:47;;;;;;;13.25;7.80;;;;;;;7.40;100.00;95355.38;4955405;28;20031;-75
2023/10/13 02:44:27;;;;;;;9.35;8.15;;;;;;;7.42;100.00;95354.25;4964915;28;20022;-75
2023/10/13 02:46:56;;;;;;;8.55;7.93;;;;;;;7.44;100.00;95356.72;4974566;28;20098;-75
2023/10/13 02:49:33;;;;;;;7.70;6.95;;;;;;;7.52;100.00;95351.66;4963521;28;20092;-75
2023/10/13 02:52:05;;;;;;;8.90;8.10;;;;;;;7.53;100.00;95352.47;4976045;28;20490;-75
2023/10/13 02:54:31;;;;;;;8.18;7.35;;;;;;;7.60;100.00;95351.75;4974951;28;20487;-74
2023/10/13 02:57:03;;;;;;;13.60;8.77;;;;;;;7.50;100.00;95357.91;4976779;28;20058;-74
2023/10/13 02:59:40;;;;;;;10.73;8.55;;;;;;;7.43;100.00;95370.53;4974749;28;20523;-74
2023/10/13 03:05:31;;;;;;;9.50;8.60;;;;;;;7.32;100.00;95381.81;4980777;28;20084;-75
2023/10/13 03:07:50;;;;;;;9.25;8.35;;;;;;;7.38;100.00;95383.84;4981767;28;20041;-75
2023/10/13 03:10:19;;;;;;;11.20;7.93;;;;;;;7.41;100.00;95386.16;4960851;28;20034;-75
2023/10/13 03:12:48;;;;;;;10.57;8.77;;;;;;;7.31;100.00;95395.69;4971536;28;20022;-75
2023/10/13 03:15:17;;;;;;;9.73;8.82;;;;;;;7.14;100.00;95395.56;4973767;28;20117;-75
2023/10/13 03:17:43;;;;;;;;;;;;;;;7.16;100.00;95399.63;4973480;28;20037;-74
2023/10/13 03:20:56;;;;;;;10.85;8.05;;;;;;;7.14;100.00;95408.44;4978279;28;20000;-75
2023/10/13 03:23:09;;;;;;;9.82;8.85;;;;;;;7.12;100.00;95415.50;4981187;28;20161;-75
2023/10/13 03:25:42;;;;;;;10.40;8.50;;;;;;;7.10;100.00;95418.19;4977815;28;20113;-74
2023/10/13 03:28:11;;;;;;;9.57;8.23;;;;;;;7.16;100.00;95416.88;4979567;28;20095;-74
2023/10/13 03:30:38;;;;;;;11.95;9.15;;;;;;;7.15;100.00;95421.19;4978921;28;20034;-75
2023/10/13 03:33:25;;;;;;;14.07;9.35;;;;;;;7.08;100.00;95424.44;4978448;28;20930;-76
2023/10/13 03:35:54;;;;;;;15.25;9.73;;;;;;;7.01;100.00;95433.66;4962797;28;20519;-75
2023/10/13 03:38:20;;;;;;;11.25;9.23;;;;;;;7.09;100.00;95438.97;4955623;28;20258;-74
2023/10/13 03:40:58;;;;;;;10.38;9.20;;;;;;;7.14;100.00;95439.34;4980900;28;20039;-75
2023/10/13 03:43:24;;;;;;;10.40;9.50;;;;;;;7.01;100.00;95436.25;4962885;28;20427;-75
2023/10/13 03:46:08;;;;;;;25.10;22.30;;;;;;;6.87;100.00;95434.91;4978617;28;20269;-74
2023/10/13 03:48:40;;;;;;;44.17;34.85;;;;;;;6.89;100.00;95433.00;4979179;28;20109;-75
2023/10/13 03:51:15;;;;;;;24.20;21.17;;;;;;;7.02;100.00;95432.72;4977525;28;20432;-75
2023/10/13 03:53:54;;;;;;;16.98;13.10;;;;;;;7.25;100.00;95424.56;4964154;28;20041;-75
2023/10/13 03:56:38;;;;;;;19.80;17.88;;;;;;;6.99;100.00;95407.25;4977885;28;20046;-74
2023/10/13 03:59:17;;;;;;;12.73;11.45;;;;;;;6.70;100.00;95402.13;4977951;28;20095;-73
2023/10/13 04:01:47;;;;;;;10.63;9.63;;;;;;;6.76;100.00;95406.72;4964185;28;20075;-74
2023/10/13 04:04:34;;;;;;;15.75;10.30;;;;;;;7.00;100.00;95394.22;4977164;28;20125;-74
2023/10/13 04:17:25;;;;;;;20.48;15.02;;;;;;;7.01;100.00;95364.97;4977290;28;20073;-75
2023/10/13 04:28:06;;;;;;;14.90;10.93;;;;;;;6.84;100.00;95388.81;4978864;28;20026;-75
2023/10/13 04:30:52;;;;;;;22.08;12.05;;;;;;;6.90;100.00;95388.31;4977739;28;20385;-75
2023/10/13 04:33:35;;;;;;;16.40;10.25;;;;;;;7.00;100.00;95385.72;4964369;28;20585;-75
2023/10/13 04:36:14;;;;;;;11.13;10.05;;;;;;;6.98;100.00;95392.75;4979908;28;20537;-75
2023/10/13 04:38:56;;;;;;;20.85;9.40;;;;;;;7.08;100.00;95384.06;4976384;28;20084;-75
2023/10/13 04:41:31;;;;;;;16.33;10.23;;;;;;;6.93;100.00;95395.75;4969280;28;20366;-75
2023/10/13 04:49:28;;;;;;;15.25;10.95;;;;;;;6.77;100.00;95411.75;4978315;28;20045;-75
2023/10/13 05:46:35;;;;;;;12.65;8.30;;;;;;;10.86;100.00;95350.88;4978729;28;20391;-75
2023/10/13 06:29:58;;;;;;;9.57;7.22;;;;;;;15.65;100.00;95344.50;4976734;28;20029;-76
2023/10/13 06:32:26;;;;;;;9.10;7.38;;;;;;;15.69;100.00;95343.94;4955649;28;20121;-75
2023/10/13 06:35:04;;;;;;;9.70;6.75;;;;;;;19.19;80.91;95335.59;4975146;28;20374;-75
2023/10/13 06:37:30;;;;;;;9.57;6.78;;;;;;;20.15;73.95;95341.16;4977132;28;20037;-75
2023/10/13 06:40:07;;;;;;;7.88;6.40;;;;;;;21.70;63.82;95346.25;4976613;28;20499;-76
2023/10/13 06:42:34;;;;;;;9.23;5.88;;;;;;;20.93;66.58;95339.38;4963337;28;20556;-75
2023/10/13 06:45:08;;;;;;;7.20;6.32;;;;;;;22.23;61.78;95337.38;4972779;28;20573;-76
2023/10/13 06:47:39;;;;;;;8.52;6.28;;;;;;;23.02;59.03;95333.91;4977647;28;20117;-77
2023/10/13 06:50:15;;;;;;;7.53;6.55;;;;;;;24.49;53.37;95337.66;4968740;28;20031;-76
2023/10/13 06:52:43;;;;;;;7.65;6.50;;;;;;;23.94;53.54;95327.13;5343968;22;20014;-75
2023/10/13 06:55:12;;;;;;;11.30;7.30;;;;;;;24.82;51.35;95336.69;4986161;28;20437;-75
2023/10/13 06:57:42;;;;;;;9.32;6.75;;;;;;;25.54;48.98;95328.34;4998512;28;20060;-76
2023/10/13 07:00:12;;;;;;;8.15;6.45;;;;;;;25.61;48.52;95327.09;4992995;28;20037;-76
2023/10/13 07:02:37;;;;;;;7.93;6.30;;;;;;;26.57;45.40;95324.97;5002490;28;20850;-76
2023/10/13 07:05:13;;;;;;;9.55;6.32;;;;;;;25.94;46.13;95330.50;4997343;28;20022;-76
2023/10/13 07:07:39;;;;;;;8.20;7.47;;;;;;;25.90;45.86;95338.16;5004997;28;20032;-77
2023/10/13 07:10:12;;;;;;;8.35;7.57;;;;;;;25.55;46.27;95330.78;5003687;28;20030;-77
2023/10/13 07:12:43;;;;;;;7.53;6.70;;;;;;;25.99;45.62;95322.53;5003353;28;20053;-76
2023/10/13 07:15:19;;;;;;;7.82;6.50;;;;;;;26.87;43.34;95313.63;4986074;28;20088;-76
2023/10/13 07:17:54;;;;;;;10.00;6.40;;;;;;;27.15;43.23;95305.16;5001624;28;20069;-75
2023/10/13 07:23:03;;;;;;;8.35;7.25;;;;;;;24.56;48.72;95305.69;5001628;28;20038;-76
2023/10/13 07:25:40;;;;;;;9.27;6.90;;;;;;;26.04;46.09;95309.31;5002313;28;20061;-76
2023/10/13 07:28:08;;;;;;;8.45;6.68;;;;;;;26.61;43.29;95315.41;4986630;28;20030;-76
2023/10/13 07:31:08;;;;;;;10.18;7.13;;;;;;;26.30;44.50;95312.91;4983650;28;20029;-76
2023/10/13 07:33:34;;;;;;;8.52;7.18;;;;;;;25.10;46.76;95309.97;5002402;28;20040;-77
2023/10/13 07:36:11;;;;;;;7.70;6.97;;;;;;;22.18;56.91;95326.72;5002167;28;20018;-77
2023/10/13 07:38:37;;;;;;;11.63;7.03;;;;;;;19.94;67.68;95318.72;5002208;28;20048;-76
2023/10/13 07:41:15;;;;;;;8.73;6.93;;;;;;;19.90;69.10;95320.19;5002909;28;20026;-76
2023/10/13 07:43:42;;;;;;;9.50;7.45;;;;;;;20.14;70.65;95311.41;5000946;28;20021;-76
2023/10/13 07:46:09;;;;;;;11.65;7.43;;;;;;;20.04;72.32;95311.13;4985295;28;20069;-76
2023/10/13 07:48:37;;;;;;;15.05;7.85;;;;;;;19.83;73.71;95319.47;5001745;28;20053;-76
2023/10/13 07:51:11;;;;;;;8.70;8.00;;;;;;;20.74;68.17;95314.13;5003568;28;20032;-76
2023/10/13 07:53:40;;;;;;;11.30;7.38;;;;;;;23.68;56.26;95300.56;5003081;28;20041;-76
2023/10/13 07:56:08;;;;;;;8.10;7.10;;;;;;;24.75;50.33;95299.00;5003054;28;20095;-77
2023/10/13 07:58:34;;;;;;;7.40;6.53;;;;;;;24.92;49.08;95294.41;5004137;28;20033;-77
2023/10/13 08:06:26;;;;;;;12.02;6.53;;;;;;;26.07;45.81;95290.97;4979891;28;20494;-76
2023/10/13 08:08:54;;;;;;;6.40;5.78;;;;;;;25.94;47.23;95295.97;5003307;28;20030;-76
2023/10/13 08:11:27;;;;;;;7.50;6.03;;;;;;;24.19;51.30;95288.81;4986018;28;20044;-76
2023/10/13 08:13:59;;;;;;;13.18;6.57;;;;;;;23.04;55.78;95295.59;4985692;28;20104;-76
2023/10/13 08:16:52;;;;;;;10.95;6.40;;;;;;;23.45;54.54;95296.25;4986114;28;20092;-77
2023/10/13 08:19:20;;;;;;;11.25;5.97;;;;;;;24.74;50.76;95288.63;5001572;28;20444;-76
2023/10/13 08:21:51;;;;;;;11.30;6.28;;;;;;;25.00;49.35;95293.16;5001069;28;20025;-77
2023/10/13 08:24:25;;;;;;;7.32;5.93;;;;;;;24.01;51.15;95293.34;5002761;28;20446;-78
2023/10/13 08:45:20;;;;;;;15.30;6.78;;;;;;;24.64;50.40;95300.72;5002004;28;20509;-77
2023/10/13 08:48:07;;;;;;;6.50;5.82;;;;;;;24.44;50.55;95305.81;5002388;28;20042;-77
2023/10/13 08:50:55;;;;;;;21.80;7.00;;;;;;;24.32;50.36;95297.19;5002968;28;20423;-78
2023/10/13 08:59:22;;;;;;;14.57;6.53;;;;;;;24.25;50.18;95285.97;5001020;28;20026;-78
2023/10/13 09:12:14;;;;;;;12.43;6.30;;;;;;;24.38;50.97;95271.56;4989487;28;20033;-78
2023/10/13 09:14:44;;;;;;;12.17;5.63;;;;;;;24.32;50.93;95288.44;5001059;28;20041;-78
2023/10/13 09:19:55;;;;;;;13.25;5.80;;;;;;;24.32;51.30;95281.31;4984445;28;20177;-77
2023/10/13 09:22:27;;;;;;;9.93;6.63;;;;;;;24.67;50.12;95276.38;4998267;28;20036;-78
2023/10/13 09:25:04;;;;;;;21.80;6.50;;;;;;;25.00;49.04;95274.59;5002315;28;20034;-78
2023/10/13 09:27:33;;;;;;;10.43;5.72;;;;;;;25.17;49.91;95286.66;4983600;28;20588;-78
2023/10/13 09:30:18;;;;;;;10.10;5.35;;;;;;;25.00;48.78;95277.25;4985137;28;20512;-79
2023/10/13 09:32:48;;;;;;;10.32;5.47;;;;;;;24.81;48.78;95276.78;4985368;28;20438;-77
2023/10/13 09:35:25;;;;;;;10.65;5.47;;;;;;;25.34;48.22;95275.91;4985193;28;20977;-79
2023/10/13 09:37:51;;;;;;;12.83;5.33;;;;;;;24.95;49.51;95269.22;5000259;28;20049;-77
2023/10/13 09:42:59;;;;;;;12.38;6.90;;;;;;;24.69;50.61;95251.50;4985737;28;20029;-78
2023/10/13 09:45:43;;;;;;;11.13;6.07;;;;;;;24.24;50.90;95251.81;5000663;28;20577;-80
2023/10/13 09:48:21;;;;;;;10.82;6.15;;;;;;;24.69;49.51;95246.19;4985649;28;20125;-80
2023/10/13 09:50:48;;;;;;;11.48;6.20;;;;;;;25.55;47.43;95242.41;4985794;28;20498;-79
2023/10/13 09:53:18;;;;;;;13.27;6.20;;;;;;;25.72;47.84;95242.22;4963255;28;20508;-80
2023/10/13 09:55:48;;;;;;;9.98;6.32;;;;;;;24.89;48.83;95244.53;4992961;28;20663;-78
2023/10/13 09:58:14;;;;;;;21.75;6.43;;;;;;;24.48;49.08;95243.34;4982499;28;20124;-77
2023/10/13 10:01:06;;;;;;;15.82;6.65;;;;;;;24.81;50.26;95244.97;4984396;28;20109;-76
2023/10/13 10:06:14;;;;;;;12.98;7.43;;;;;;;25.55;48.01;95247.69;5000457;28;20053;-77
2023/10/13 10:08:48;;;;;;;13.13;6.60;;;;;;;25.31;48.15;95243.78;4986234;28;20038;-78
2023/10/13 10:11:31;;;;;;;16.52;6.38;;;;;;;25.31;48.47;95241.94;4999761;28;20086;-78
2023/10/13 10:14:05;;;;;;;10.88;6.95;;;;;;;24.83;49.47;95237.59;4982186;28;20034;-79
2023/10/13 10:16:46;;;;;;;14.90;6.72;;;;;;;25.05;48.85;95233.00;4988731;28;20515;-77
2023/10/13 10:19:12;;;;;;;8.95;7.05;;;;;;;24.94;49.25;95226.03;4990035;28;20019;-79
2023/10/13 10:21:38;;;;;;;10.35;6.80;;;;;;;25.16;48.49;95223.28;4988187;28;20030;-78
2023/10/13 10:24:31;;;;;;;12.82;7.68;;;;;;;25.07;50.10;95225.59;4987923;28;20408;-78
2023/10/13 10:26:57;;;;;;;12.88;6.75;;;;;;;25.12;49.23;95224.84;4993273;28;20192;-78
2023/10/13 10:29:22;;;;;;;13.18;6.45;;;;;;;25.20;48.62;95219.06;4973899;28;20487;-79
2023/10/13 10:31:48;;;;;;;11.63;7.00;;;;;;;24.59;49.10;95215.88;4996028;28;20033;-78
2023/10/13 10:34:21;;;;;;;11.18;6.85;;;;;;;25.00;48.67;95208.31;4997944;28;20038;-80
2023/10/13 10:36:48;;;;;;;12.40;6.38;;;;;;;25.24;47.77;95209.53;4982948;28;20029;-80
2023/10/13 10:39:17;;;;;;;11.85;6.75;;;;;;;25.00;49.09;95198.50;4980112;28;20073;-80
2023/10/13 10:44:55;;;;;;;10.95;6.93;;;;;;;25.31;46.91;95199.50;4992841;28;20114;-79
2023/10/13 10:47:36;;;;;;;10.57;7.20;;;;;;;24.93;48.56;95194.47;4978940;28;20117;-81
2023/10/13 10:50:19;;;;;;;14.98;6.28;;;;;;;25.38;45.94;95189.47;4991408;28;20028;-77
2023/10/13 10:52:46;;;;;;;10.65;6.97;;;;;;;25.46;45.65;95196.16;4985980;28;20026;-80
2023/10/13 10:55:14;;;;;;;21.73;7.65;;;;;;;25.33;46.93;95192.09;5000100;28;20037;-78
2023/10/13 10:57:48;;;;;;;9.32;6.30;;;;;;;25.39;46.91;95188.41;4998939;28;20073;-80
2023/10/13 11:00:21;;;;;;;11.40;6.70;;;;;;;25.02;46.25;95199.03;4999613;28;20025;-80
2023/10/13 11:02:56;;;;;;;14.55;6.10;;;;;;;25.34;46.45;95198.97;4991792;28;20483;-80
2023/10/13 11:05:32;;;;;;;13.02;6.65;;;;;;;25.17;46.09;95188.53;4982662;28;20034;-83
2023/10/13 11:07:58;;;;;;;12.73;5.80;;;;;;;25.35;45.77;95179.38;4999442;28;20025;-82
2023/10/13 11:10:31;;;;;;;11.80;6.38;;;;;;;25.32;44.91;95179.09;4999727;28;20861;-81
2023/10/13 11:13:50;;;;;;;13.23;5.95;;;;;;;25.16;45.36;95180.84;5000082;28;20026;-78
2023/10/13 11:15:47;;;;;;;30.90;7.40;;;;;;;25.37;44.72;95179.91;4992046;28;20057;-80
2023/10/13 11:18:16;;;;;;;16.42;6.45;;;;;;;25.47;46.42;95179.16;5000892;28;20038;-81
2023/10/13 11:20:45;;;;;;;10.15;5.60;;;;;;;25.21;45.64;95172.09;5000636;28;20037;-81
2023/10/13 11:23:15;;;;;;;11.63;5.85;;;;;;;25.26;45.05;95170.31;4982862;28;20053;-80
2023/10/13 11:25:43;;;;;;;12.25;6.15;;;;;;;25.40;44.27;95165.31;4986613;28;20036;-80
2023/10/13 11:28:28;;;;;;;14.43;6.90;;;;;;;25.53;45.84;95162.22;4981797;28;20125;-80
2023/10/13 11:31:10;;;;;;;14.18;6.75;;;;;;;25.62;45.01;95152.75;4992641;28;20031;-80
2023/10/13 11:33:36;;;;;;;16.08;5.53;;;;;;;25.66;44.60;95157.25;4980888;28;20125;-80
2023/10/13 11:36:03;;;;;;;8.38;5.72;;;;;;;25.34;45.16;95153.88;4989250;28;20802;-80
2023/10/13 11:41:18;;;;;;;7.15;5.40;;;;;;;25.27;44.47;95150.66;4977841;28;20033;-82
2023/10/13 11:49:17;;;;;;;9.43;4.97;;;;;;;25.22;42.70;95140.03;4988107;28;20057;-80
2023/10/13 11:51:49;;;;;;;9.93;4.60;;;;;;;25.60;43.62;95133.59;4988732;28;20026;-83
2023/10/13 11:54:15;;;;;;;8.20;4.70;;;;;;;25.91;43.47;95130.00;4985224;28;20499;-82
2023/10/13 11:56:48;;;;;;;12.10;4.68;;;;;;;25.51;43.98;95130.66;5003772;28;20026;-80
2023/10/13 11:59:24;;;;;;;7.95;4.75;;;;;;;25.40;43.96;95131.63;4983661;28;20127;-79
2023/10/13 12:04:43;;;;;;;5.65;4.55;;;;;;;25.47;43.67;95126.91;5003357;28;20032;-77
2023/10/13 12:07:19;;;;;;;13.45;5.03;;;;;;;25.46;43.36;95127.94;5001798;28;20022;-79
2023/10/13 12:12:22;;;;;;;15.02;4.53;;;;;;;25.42;43.90;95116.28;4985866;28;20570;-81
2023/10/13 12:14:56;;;;;;;10.35;4.40;;;;;;;25.38;42.97;95109.88;4986265;28;20041;-80
2023/10/13 12:17:44;;;;;;;11.43;4.43;;;;;;;25.19;42.77;95098.13;5003310;28;20025;-79
2023/10/13 12:20:10;;;;;;;11.38;4.25;;;;;;;25.48;43.68;95109.13;5002800;28;20017;-81
2023/10/13 12:22:42;;;;;;;10.40;4.45;;;;;;;25.59;42.34;95111.56;5003642;28;20108;-79
2023/10/13 12:27:57;;;;;;;6.30;4.10;;;;;;;25.59;43.69;95111.56;4988781;28;20069;-77
2023/10/13 12:33:25;;;;;;;7.10;4.20;;;;;;;25.66;42.98;95106.03;4966617;28;20056;-79
2023/10/13 12:36:03;;;;;;;9.13;3.88;;;;;;;25.63;42.65;95107.34;4985463;28;20885;-80
2023/10/13 12:38:51;;;;;;;13.52;4.43;;;;;;;25.46;43.21;95106.72;4984619;28;20040;-80
2023/10/13 12:49:49;;;;;;;9.52;3.80;;;;;;;25.48;42.95;95093.22;4987089;28;20388;-81
2023/10/13 12:52:31;;;;;;;9.23;4.00;;;;;;;25.45;43.19;95091.88;4979282;28;20513;-78
2023/10/13 12:57:26;;;;;;;6.88;3.80;;;;;;;25.15;42.82;95100.50;4985435;28;20573;-80
2023/10/13 12:59:54;;;;;;;7.78;3.53;;;;;;;25.35;42.60;95094.47;5000808;28;20037;-79
2023/10/13 13:02:26;;;;;;;;;;;;;;;25.60;42.61;95094.59;4985816;28;20040;-80
2023/10/13 13:05:11;;;;;;;9.30;3.60;;;;;;;25.61;41.72;95082.94;4999769;28;19917;-78
2023/10/13 13:07:52;;;;;;;6.05;3.53;;;;;;;25.50;41.57;95091.09;5001686;28;20104;-79
2023/10/13 13:10:18;;;;;;;6.43;3.05;;;;;;;25.45;40.32;95089.22;5002425;28;20399;-80
2023/10/13 13:12:43;;;;;;;3.38;2.88;;;;;;;25.49;40.39;95085.03;5000212;28;20025;-78
2023/10/13 13:15:11;;;;;;;4.15;3.42;;;;;;;25.39;41.50;95092.91;5002542;28;20118;-79
2023/10/13 13:17:38;;;;;;;5.75;3.17;;;;;;;25.17;41.98;95087.75;5000707;28;20093;-81
2023/10/13 13:20:11;;;;;;;7.78;3.10;;;;;;;25.01;42.10;95093.25;5002394;28;20042;-80
2023/10/13 13:22:39;;;;;;;8.63;3.05;;;;;;;24.98;41.15;95081.28;5001639;28;20112;-81
2023/10/13 13:25:09;;;;;;;6.75;2.13;;;;;;;25.21;39.37;95088.03;4983371;28;20037;-79
2023/10/13 13:27:36;;;;;;;5.00;1.90;;;;;;;25.07;39.46;95086.94;5002381;28;20033;-79
2023/10/13 13:30:02;;;;;;;2.05;1.50;;;;;;;24.99;38.38;95093.50;4983056;28;20113;-82
2023/10/13 13:32:28;;;;;;;5.22;1.90;;;;;;;25.00;38.20;95092.47;5002397;28;20108;-81
2023/10/13 13:34:57;;;;;;;4.57;1.50;;;;;;;25.04;37.86;95093.53;4982690;28;20641;-87
2023/10/13 13:37:22;;;;;;;4.80;1.88;;;;;;;24.84;37.90;95087.31;5000143;28;20026;-81
2023/10/13 13:39:48;;;;;;;5.65;1.50;;;;;;;25.14;36.11;95088.28;4978985;28;20038;-80
2023/10/13 13:42:17;;;;;;;5.03;2.10;;;;;;;25.10;37.13;95095.16;5000444;28;20080;-81
2023/10/13 13:44:48;;;;;;;4.43;1.80;;;;;;;24.85;37.48;95095.00;5002412;28;20034;-82
2023/10/13 13:47:14;;;;;;;4.13;1.92;;;;;;;24.93;37.84;95088.44;4982336;28;20026;-82
2023/10/13 13:49:54;;;;;;;2.97;1.60;;;;;;;24.69;38.90;95097.78;5001891;28;20044;-83
2023/10/13 13:52:33;;;;;;;3.72;1.80;;;;;;;24.73;37.62;95097.00;4983147;28;20032;-83
2023/10/13 13:55:02;;;;;;;;;;;;;;;24.80;37.53;95091.50;5002121;28;20049;-81
2023/10/13 13:57:27;;;;;;;;;;;;;;;24.69;38.73;95095.16;4965789;28;19921;-80
2023/10/13 13:59:52;;;;;;;4.53;1.95;;;;;;;24.62;39.02;95098.81;4986949;28;20335;-84
2023/10/13 14:02:21;;;;;;;2.70;1.48;;;;;;;24.49;38.99;95090.50;4989039;28;20505;-82
2023/10/13 14:04:50;;;;;;;6.75;2.03;;;;;;;24.48;39.45;95095.00;4990422;28;20034;-85
2023/10/13 14:07:16;;;;;;;3.42;1.98;;;;;;;24.38;39.18;95079.03;4975287;28;20034;-84
2023/10/13 14:09:44;;;;;;;3.70;1.92;;;;;;;24.41;39.01;95086.47;4988104;28;20030;-86
2023/10/13 14:15:19;;;;;;;5.55;2.00;;;;;;;24.52;38.89;95092.63;4934324;28;20031;-82
2023/10/13 14:17:48;;;;;;;5.90;1.75;;;;;;;24.45;38.77;95095.50;4938896;28;20226;-82
2023/10/13 14:20:20;;;;;;;8.13;1.90;;;;;;;24.31;39.44;95086.38;4956414;28;20037;-83
2023/10/13 14:22:47;;;;;;;2.17;1.52;;;;;;;24.13;39.28;95095.50;4981620;28;20696;-81
2023/10/13 14:25:14;;;;;;;3.60;1.70;;;;;;;23.99;39.87;95096.13;4979654;28;20620;-81
2023/10/13 14:27:41;;;;;;;5.40;1.80;;;;;;;23.95;39.50;95100.31;4982662;28;20407;-82
2023/10/13 14:30:07;;;;;;;3.65;1.70;;;;;;;24.00;39.98;95087.13;4998493;28;20018;-80
2023/10/13 14:32:38;;;;;;;5.97;2.13;;;;;;;23.99;40.13;95090.81;5000187;28;20096;-82
2023/10/13 14:35:14;;;;;;;4.50;1.67;;;;;;;23.89;40.91;95096.03;4997963;28;20537;-79
2023/10/13 14:37:40;;;;;;;9.32;2.35;;;;;;;23.88;40.41;95097.06;5000280;28;20069;-80
2023/10/13 14:40:11;;;;;;;4.32;1.75;;;;;;;23.70;41.17;95084.16;4998411;28;20348;-78
2023/10/13 14:42:40;;;;;;;5.78;2.28;;;;;;;23.59;40.84;95092.03;4999374;28;20108;-84
2023/10/13 14:45:12;;;;;;;5.20;1.90;;;;;;;23.47;41.42;95086.03;4999510;28;20022;-81
2023/10/13 14:47:39;;;;;;;2.90;1.70;;;;;;;23.45;41.51;95088.16;4998367;28;20551;-80
2023/10/13 14:50:05;;;;;;;3.88;2.10;;;;;;;23.42;41.04;95090.47;4999447;28;20049;-81
2023/10/13 14:52:31;;;;;;;3.50;2.00;;;;;;;23.34;41.19;95089.03;4999021;28;20503;-79
2023/10/13 14:54:57;;;;;;;4.82;2.05;;;;;;;23.31;40.95;95084.22;4980107;28;20058;-79
2023/10/13 14:57:26;;;;;;;5.68;2.10;;;;;;;23.15;42.00;95089.59;4980798;28;20019;-80
2023/10/13 14:59:55;;;;;;;;;;;;;;;23.02;42.49;95086.25;4983937;28;20735;-81
2023/10/13 15:02:21;;;;;;;4.18;1.95;;;;;;;22.97;42.54;95091.47;4984775;28;20306;-80
2023/10/13 15:04:48;;;;;;;6.13;2.28;;;;;;;22.86;42.59;95078.38;4982676;28;20029;-80
2023/10/13 15:07:15;;;;;;;7.18;2.00;;;;;;;22.82;42.84;95079.91;4985245;28;20033;-79
2023/10/13 15:09:42;;;;;;;8.27;2.13;;;;;;;22.62;43.97;95079.56;4983903;28;20110;-79
2023/10/13 15:12:10;;;;;;;6.78;2.00;;;;;;;22.48;44.59;95084.38;4984210;28;20037;-78
2023/10/13 15:14:42;;;;;;;5.35;2.10;;;;;;;22.57;43.78;95088.25;4982592;28;20476;-78
2023/10/13 15:17:09;;;;;;;6.50;2.33;;;;;;;22.34;44.89;95091.84;4982311;28;20034;-79
2023/10/13 15:19:38;;;;;;;6.20;2.33;;;;;;;22.14;45.74;95086.22;4985071;28;20770;-78
2023/10/13 15:22:06;;;;;;;4.72;2.33;;;;;;;22.07;45.44;95088.22;4983454;28;20026;-78